createdAt,value
2023-02-04T00:00:01.132Z,1017.76
2023-02-04T00:01:01.116Z,1017.76
2023-02-04T00:02:01.056Z,1017.72
2023-02-04T00:03:01.260Z,1017.93
2023-02-04T00:04:01.149Z,1017.94
2023-02-04T00:05:01.443Z,1018.04
2023-02-04T00:06:02.397Z,1018
2023-02-04T00:07:01.178Z,1018.17
2023-02-04T00:08:01.089Z,1018.23
2023-02-04T00:09:01.111Z,1018.09
2023-02-04T00:10:01.792Z,1018.32
2023-02-04T00:11:01.078Z,1018.23
2023-02-04T00:12:01.099Z,1018.31
2023-02-04T00:13:01.370Z,1018.42
2023-02-04T00:14:01.686Z,1018.45
2023-02-04T00:15:01.759Z,1018.34
2023-02-04T00:16:01.879Z,1018.27
2023-02-04T00:17:01.144Z,1018.43
2023-02-04T00:18:01.844Z,1018.33
2023-02-04T00:19:01.206Z,1018.53
2023-02-04T00:20:01.046Z,1018.39
2023-02-04T00:21:01.328Z,1018.44
2023-02-04T00:22:01.579Z,1018.52
2023-02-04T00:23:02.166Z,1018.64
2023-02-04T00:24:01.291Z,1018.62
2023-02-04T00:25:08.030Z,1018.65
2023-02-04T00:26:01.080Z,1018.74
2023-02-04T00:27:01.237Z,1018.72
2023-02-04T00:28:01.245Z,1018.73
2023-02-04T00:29:01.109Z,1018.85
2023-02-04T00:30:01.115Z,1018.86
2023-02-04T00:31:01.547Z,1018.87
2023-02-04T00:32:01.272Z,1018.9
2023-02-04T00:33:02.297Z,1019.02
2023-02-04T00:34:01.154Z,1019.09
2023-02-04T00:35:01.132Z,1019.15
2023-02-04T00:36:01.155Z,1019.07
2023-02-04T00:37:01.165Z,1019.17
2023-02-04T00:38:01.619Z,1019.13
2023-02-04T00:39:01.079Z,1019.25
2023-02-04T00:40:01.079Z,1019.29
2023-02-04T00:41:01.080Z,1019.23
2023-02-04T00:42:01.086Z,1019.37
2023-02-04T00:43:01.084Z,1019.34
2023-02-04T00:44:01.081Z,1019.42
2023-02-04T00:45:01.320Z,1019.47
2023-02-04T00:46:02.203Z,1019.44
2023-02-04T00:47:01.061Z,1019.48
2023-02-04T00:48:01.132Z,1019.47
2023-02-04T00:49:01.137Z,1019.5
2023-02-04T00:50:01.339Z,1019.66
2023-02-04T00:51:01.851Z,1019.69
2023-02-04T00:52:01.577Z,1019.68
2023-02-04T00:53:01.174Z,1019.74
2023-02-04T00:54:01.170Z,1019.87
2023-02-04T00:55:01.165Z,1019.85
2023-02-04T00:56:05.490Z,1019.91
2023-02-04T00:57:01.453Z,1019.93
2023-02-04T00:58:01.098Z,1019.98
2023-02-04T00:59:01.065Z,1020.03
2023-02-04T01:00:01.094Z,1020.08
2023-02-04T01:01:08.564Z,1020.15
2023-02-04T01:02:01.124Z,1020.21
2023-02-04T01:03:02.014Z,1020.14
2023-02-04T01:04:01.864Z,1020.27
2023-02-04T01:05:01.131Z,1020.38
2023-02-04T01:06:11.253Z,1020.35
2023-02-04T01:07:02.067Z,1020.49
2023-02-04T01:08:01.391Z,1020.53
2023-02-04T01:09:01.164Z,1020.48
2023-02-04T01:10:01.331Z,1020.51
2023-02-04T01:11:14.317Z,1020.59
2023-02-04T01:12:05.153Z,1020.52
2023-02-04T01:13:01.088Z,1020.64
2023-02-04T01:14:01.091Z,1020.88
2023-02-04T01:15:01.154Z,1020.97
2023-02-04T01:16:16.741Z,1020.91
2023-02-04T01:17:02.404Z,1021
2023-02-04T01:18:01.164Z,1021.04
2023-02-04T01:19:01.120Z,1021.07
2023-02-04T01:20:01.107Z,1021.23
2023-02-04T01:21:01.137Z,1021.28
2023-02-04T01:22:01.391Z,1021.35
2023-02-04T01:23:01.291Z,1021.42
2023-02-04T01:24:01.539Z,1021.61
2023-02-04T01:25:01.169Z,1021.58
2023-02-04T01:26:01.148Z,1021.62
2023-02-04T01:27:01.156Z,1021.71
2023-02-04T01:28:01.164Z,1021.72
2023-02-04T01:29:01.154Z,1021.71
2023-02-04T01:30:01.114Z,1021.79
2023-02-04T01:31:01.189Z,1021.87
2023-02-04T01:32:01.570Z,1021.95
2023-02-04T01:33:01.095Z,1022.03
2023-02-04T01:34:01.062Z,1021.98
2023-02-04T01:35:01.066Z,1022.13
2023-02-04T01:36:01.067Z,1022.05
2023-02-04T01:37:01.135Z,1022.16
2023-02-04T01:38:01.172Z,1022.35
2023-02-04T01:39:00.822Z,1022.24
2023-02-04T01:40:00.642Z,1022.25
2023-02-04T01:41:00.471Z,1022.22
2023-02-04T01:42:00.135Z,1022.28
2023-02-04T01:42:59.858Z,1022.5
2023-02-04T01:44:01.555Z,1022.37
2023-02-04T01:45:01.287Z,1022.44
2023-02-04T01:46:02.074Z,1022.48
2023-02-04T01:47:01.091Z,1022.57
2023-02-04T01:48:01.513Z,1022.51
2023-02-04T01:49:01.108Z,1022.66
2023-02-04T01:50:01.111Z,1022.77
2023-02-04T01:51:01.104Z,1022.74
2023-02-04T01:52:01.116Z,1022.87
2023-02-04T01:53:01.146Z,1022.7
2023-02-04T01:54:01.132Z,1022.73
2023-02-04T01:55:01.155Z,1022.87
2023-02-04T01:56:01.060Z,1022.84
2023-02-04T01:57:01.145Z,1022.98
2023-02-04T01:58:01.156Z,1022.99
2023-02-04T01:59:01.552Z,1022.98
2023-02-04T02:00:01.288Z,1022.97
2023-02-04T02:01:01.128Z,1023.01
2023-02-04T02:02:01.112Z,1023.14
2023-02-04T02:03:01.110Z,1023.16
2023-02-04T02:04:00.764Z,1023.06
2023-02-04T02:05:00.376Z,1023.22
2023-02-04T02:05:59.962Z,1023.24
2023-02-04T02:06:59.549Z,1023.25
2023-02-04T02:08:01.155Z,1023.26
2023-02-04T02:09:01.128Z,1023.32
2023-02-04T02:10:01.147Z,1023.3
2023-02-04T02:11:01.303Z,1023.39
2023-02-04T02:12:02.577Z,1023.38
2023-02-04T02:13:01.056Z,1023.4
2023-02-04T02:14:01.464Z,1023.46
2023-02-04T02:15:01.172Z,1023.46
2023-02-04T02:16:02.360Z,1023.38
2023-02-04T02:17:01.282Z,1023.54
2023-02-04T02:18:00.725Z,1023.58
2023-02-04T02:19:01.133Z,1023.59
2023-02-04T02:20:01.113Z,1023.59
2023-02-04T02:21:01.932Z,1023.61
2023-02-04T02:22:01.226Z,1023.68
2023-02-04T02:23:01.243Z,1023.71
2023-02-04T02:24:01.883Z,1023.84
2023-02-04T02:25:01.261Z,1023.78
2023-02-04T02:26:01.133Z,1023.81
2023-02-04T02:27:01.063Z,1023.79
2023-02-04T02:28:01.184Z,1023.75
2023-02-04T02:29:01.142Z,1023.81
2023-02-04T02:30:01.144Z,1023.87
2023-02-04T02:31:01.147Z,1023.92
2023-02-04T02:32:01.382Z,1023.97
2023-02-04T02:33:03.862Z,1024.01
2023-02-04T02:34:01.065Z,1024
2023-02-04T02:35:01.061Z,1024.05
2023-02-04T02:36:01.086Z,1024.06
2023-02-04T02:37:03.432Z,1024.06
2023-02-04T02:38:01.173Z,1024.17
2023-02-04T02:39:01.107Z,1024.22
2023-02-04T02:40:01.109Z,1024.14
2023-02-04T02:41:01.073Z,1024.2
2023-02-04T02:42:06.159Z,1024.19
2023-02-04T02:43:01.515Z,1024.18
2023-02-04T02:44:01.255Z,1024.24
2023-02-04T02:45:01.258Z,1024.31
2023-02-04T02:46:01.253Z,1024.31
2023-02-04T02:47:08.217Z,1024.33
2023-02-04T02:48:01.159Z,1024.44
2023-02-04T02:49:01.060Z,1024.41
2023-02-04T02:50:01.155Z,1024.49
2023-02-04T02:51:01.150Z,1024.52
2023-02-04T02:52:11.878Z,1024.58
2023-02-04T02:53:01.105Z,1024.63
2023-02-04T02:54:01.084Z,1024.65
2023-02-04T02:55:01.760Z,1024.68
2023-02-04T02:56:01.071Z,1024.75
2023-02-04T02:57:13.958Z,1024.76
2023-02-04T02:58:01.790Z,1024.81
2023-02-04T02:59:01.449Z,1024.85
2023-02-04T03:00:02.059Z,1024.96
2023-02-04T03:01:01.169Z,1024.91
2023-02-04T03:02:16.398Z,1024.96
2023-02-04T03:03:02.693Z,1024.95
2023-02-04T03:04:02.590Z,1025.03
2023-02-04T03:05:01.518Z,1025.01
2023-02-04T03:06:01.200Z,1025.04
2023-02-04T03:07:01.070Z,1025.08
2023-02-04T03:08:01.090Z,1025.14
2023-02-04T03:09:00.684Z,1025.21
2023-02-04T03:10:00.257Z,1025.27
2023-02-04T03:10:59.943Z,1025.2
2023-02-04T03:11:59.764Z,1025.27
2023-02-04T03:13:01.523Z,1025.29
2023-02-04T03:14:00.898Z,1025.29
2023-02-04T03:15:01.093Z,1025.36
2023-02-04T03:16:01.423Z,1025.45
2023-02-04T03:17:02.052Z,1025.42
2023-02-04T03:18:01.191Z,1025.42
2023-02-04T03:19:01.162Z,1025.49
2023-02-04T03:20:01.148Z,1025.49
2023-02-04T03:21:01.165Z,1025.5
2023-02-04T03:22:01.073Z,1025.6
2023-02-04T03:23:01.077Z,1025.59
2023-02-04T03:24:01.085Z,1025.62
2023-02-04T03:25:01.096Z,1025.66
2023-02-04T03:26:01.078Z,1025.67
2023-02-04T03:27:01.207Z,1025.7
2023-02-04T03:28:01.130Z,1025.8
2023-02-04T03:29:01.066Z,1025.84
2023-02-04T03:30:01.151Z,1025.84
2023-02-04T03:31:01.628Z,1025.88
2023-02-04T03:32:01.652Z,1025.93
2023-02-04T03:33:01.321Z,1025.95
2023-02-04T03:34:02.066Z,1026.03
2023-02-04T03:35:02.053Z,1026.05
2023-02-04T03:36:01.671Z,1026.13
2023-02-04T03:37:01.170Z,1026.11
2023-02-04T03:38:01.074Z,1026.18
2023-02-04T03:39:01.077Z,1026.23
2023-02-04T03:40:01.493Z,1026.22
2023-02-04T03:41:01.217Z,1026.25
2023-02-04T03:42:01.377Z,1026.24
2023-02-04T03:43:01.109Z,1026.23
2023-02-04T03:44:01.941Z,1026.33
2023-02-04T03:45:01.110Z,1026.28
2023-02-04T03:46:01.191Z,1026.32
2023-02-04T03:47:01.555Z,1026.28
2023-02-04T03:48:01.078Z,1026.35
2023-02-04T03:49:01.092Z,1026.4
2023-02-04T03:50:01.465Z,1026.42
2023-02-04T03:51:01.148Z,1026.44
2023-02-04T03:52:01.158Z,1026.45
2023-02-04T03:53:01.173Z,1026.49
2023-02-04T03:54:01.167Z,1026.51
2023-02-04T03:55:01.165Z,1026.54
2023-02-04T03:56:01.069Z,1026.55
2023-02-04T03:57:01.120Z,1026.57
2023-02-04T03:58:01.523Z,1026.63
2023-02-04T03:59:01.226Z,1026.73
2023-02-04T04:00:01.114Z,1026.72
2023-02-04T04:01:01.274Z,1026.78
2023-02-04T04:02:00.613Z,1026.82
2023-02-04T04:03:00.607Z,1026.84
2023-02-04T04:04:00.297Z,1026.88
2023-02-04T04:04:59.884Z,1026.88
2023-02-04T04:05:59.526Z,1026.92
2023-02-04T04:07:01.427Z,1026.99
2023-02-04T04:08:01.124Z,1026.99
2023-02-04T04:09:01.163Z,1027.04
2023-02-04T04:10:01.173Z,1027.08
2023-02-04T04:11:01.178Z,1027.1
2023-02-04T04:12:01.186Z,1027.2
2023-02-04T04:13:01.918Z,1027.26
2023-02-04T04:14:01.096Z,1027.29
2023-02-04T04:15:00.624Z,1027.38
2023-02-04T04:16:00.328Z,1027.41
2023-02-04T04:16:59.959Z,1027.5
2023-02-04T04:17:59.659Z,1027.46
2023-02-04T04:19:01.532Z,1027.45
2023-02-04T04:20:01.135Z,1027.55
2023-02-04T04:21:01.060Z,1027.53
2023-02-04T04:22:01.128Z,1027.61
2023-02-04T04:23:01.137Z,1027.61
2023-02-04T04:24:01.168Z,1027.63
2023-02-04T04:25:01.152Z,1027.62
2023-02-04T04:26:01.164Z,1027.69
2023-02-04T04:27:01.224Z,1027.75
2023-02-04T04:28:02.690Z,1027.76
2023-02-04T04:29:01.260Z,1027.82
2023-02-04T04:30:01.050Z,1027.9
2023-02-04T04:31:01.209Z,1027.91
2023-02-04T04:32:01.130Z,1027.91
2023-02-04T04:33:05.421Z,1027.91
2023-02-04T04:34:01.222Z,1027.98
2023-02-04T04:35:01.022Z,1027.96
2023-02-04T04:36:01.031Z,1027.97
2023-02-04T04:37:01.540Z,1028.04
2023-02-04T04:38:07.739Z,1028.08
2023-02-04T04:39:01.144Z,1028.1
2023-02-04T04:40:01.139Z,1028.11
2023-02-04T04:41:01.144Z,1028.17
2023-02-04T04:42:01.199Z,1028.21
2023-02-04T04:43:10.452Z,1028.28
2023-02-04T04:44:01.151Z,1028.27
2023-02-04T04:45:01.074Z,1028.29
2023-02-04T04:46:01.089Z,1028.33
2023-02-04T04:47:01.268Z,1028.35
2023-02-04T04:48:11.803Z,1028.4
2023-02-04T04:49:02.052Z,1028.39
2023-02-04T04:50:01.106Z,1028.44
2023-02-04T04:51:01.127Z,1028.44
2023-02-04T04:52:01.159Z,1028.51
2023-02-04T04:53:15.863Z,1028.54
2023-02-04T04:54:01.521Z,1028.52
2023-02-04T04:55:01.130Z,1028.53
2023-02-04T04:56:01.129Z,1028.57
2023-02-04T04:57:01.163Z,1028.6
2023-02-04T04:58:01.178Z,1028.62
2023-02-04T04:59:01.975Z,1028.71
2023-02-04T05:00:01.105Z,1028.7
2023-02-04T05:01:01.255Z,1028.81
2023-02-04T05:02:01.075Z,1028.81
2023-02-04T05:03:01.406Z,1028.85
2023-02-04T05:04:01.112Z,1028.87
2023-02-04T05:05:01.159Z,1028.88
2023-02-04T05:06:01.093Z,1028.94
2023-02-04T05:07:01.104Z,1028.92
2023-02-04T05:08:01.106Z,1028.88
2023-02-04T05:09:01.120Z,1028.98
2023-02-04T05:10:01.937Z,1029
2023-02-04T05:11:01.219Z,1029.04
2023-02-04T05:12:01.242Z,1029.02
2023-02-04T05:13:01.556Z,1029.06
2023-02-04T05:14:01.168Z,1029.07
2023-02-04T05:15:01.164Z,1029.07
2023-02-04T05:16:01.200Z,1029.16
2023-02-04T05:17:01.993Z,1029.23
2023-02-04T05:18:01.079Z,1029.22
2023-02-04T05:19:01.091Z,1029.24
2023-02-04T05:20:01.054Z,1029.23
2023-02-04T05:21:01.417Z,1029.27
2023-02-04T05:22:01.440Z,1029.3
2023-02-04T05:23:04.015Z,1029.29
2023-02-04T05:24:01.065Z,1029.34
2023-02-04T05:25:01.068Z,1029.41
2023-02-04T05:26:01.140Z,1029.38
2023-02-04T05:27:01.146Z,1029.44
2023-02-04T05:28:02.043Z,1029.49
2023-02-04T05:29:01.374Z,1029.49
2023-02-04T05:30:02.548Z,1029.57
2023-02-04T05:31:01.323Z,1029.63
2023-02-04T05:32:04.240Z,1029.61
2023-02-04T05:33:02.097Z,1029.63
2023-02-04T05:34:01.087Z,1029.72
2023-02-04T05:35:01.098Z,1029.71
2023-02-04T05:36:01.086Z,1029.74
2023-02-04T05:37:01.097Z,1029.75
2023-02-04T05:38:01.136Z,1029.79
2023-02-04T05:39:01.573Z,1029.84
2023-02-04T05:40:01.120Z,1029.84
2023-02-04T05:41:01.129Z,1029.88
2023-02-04T05:42:01.218Z,1029.92
2023-02-04T05:43:01.135Z,1029.93
2023-02-04T05:44:01.149Z,1029.98
2023-02-04T05:45:01.090Z,1029.97
2023-02-04T05:46:01.272Z,1029.99
2023-02-04T05:47:01.178Z,1030.05
2023-02-04T05:48:01.151Z,1030.07
2023-02-04T05:49:01.489Z,1030.13
2023-02-04T05:50:01.096Z,1030.12
2023-02-04T05:51:01.089Z,1030.18
2023-02-04T05:52:01.091Z,1030.18
2023-02-04T05:53:02.215Z,1030.18
2023-02-04T05:54:01.794Z,1030.19
2023-02-04T05:55:00.839Z,1030.19
2023-02-04T05:56:00.524Z,1030.24
2023-02-04T05:57:00.122Z,1030.3
2023-02-04T05:58:00.146Z,1030.29
2023-02-04T05:58:59.793Z,1030.29
2023-02-04T06:00:01.762Z,1030.31
2023-02-04T06:01:01.484Z,1030.37
2023-02-04T06:02:02.392Z,1030.4
2023-02-04T06:03:01.175Z,1030.39
2023-02-04T06:04:00.922Z,1030.46
2023-02-04T06:05:00.597Z,1030.45
2023-02-04T06:06:00.329Z,1030.46
2023-02-04T06:07:00.332Z,1030.51
2023-02-04T06:08:00.061Z,1030.51
2023-02-04T06:08:59.763Z,1030.56
2023-02-04T06:10:01.384Z,1030.56
2023-02-04T06:11:01.103Z,1030.6
2023-02-04T06:12:01.140Z,1030.62
2023-02-04T06:13:01.114Z,1030.64
2023-02-04T06:14:01.133Z,1030.65
2023-02-04T06:15:01.558Z,1030.68
2023-02-04T06:16:01.147Z,1030.7
2023-02-04T06:17:01.139Z,1030.76
2023-02-04T06:18:01.139Z,1030.75
2023-02-04T06:19:04.735Z,1030.82
2023-02-04T06:20:01.786Z,1030.82
2023-02-04T06:21:01.361Z,1030.83
2023-02-04T06:22:02.161Z,1030.85
2023-02-04T06:23:01.132Z,1030.86
2023-02-04T06:24:06.913Z,1030.9
2023-02-04T06:25:01.084Z,1030.95
2023-02-04T06:26:01.089Z,1030.9
2023-02-04T06:27:01.107Z,1030.93
2023-02-04T06:28:01.167Z,1030.93
2023-02-04T06:29:08.523Z,1030.94
2023-02-04T06:30:01.113Z,1030.95
2023-02-04T06:31:01.206Z,1030.94
2023-02-04T06:32:01.159Z,1030.97
2023-02-04T06:33:01.200Z,1031.01
2023-02-04T06:34:11.914Z,1031.01
2023-02-04T06:35:01.044Z,1031.04
2023-02-04T06:36:01.177Z,1031.05
2023-02-04T06:37:01.151Z,1031.04
2023-02-04T06:38:01.071Z,1031.09
2023-02-04T06:39:09.611Z,1031.06
2023-02-04T06:40:01.049Z,1031.1
2023-02-04T06:41:01.073Z,1031.15
2023-02-04T06:42:01.144Z,1031.13
2023-02-04T06:43:01.153Z,1031.14
2023-02-04T06:44:16.850Z,1031.12
2023-02-04T06:45:01.438Z,1031.22
2023-02-04T06:46:01.895Z,1031.22
2023-02-04T06:47:01.118Z,1031.25
2023-02-04T06:48:01.128Z,1031.24
2023-02-04T06:49:00.820Z,1031.25
2023-02-04T06:50:01.143Z,1031.25
2023-02-04T06:51:01.577Z,1031.3
2023-02-04T06:52:02.156Z,1031.31
2023-02-04T06:53:01.180Z,1031.32
2023-02-04T06:54:01.150Z,1031.29
2023-02-04T06:55:01.220Z,1031.34
2023-02-04T06:56:01.793Z,1031.33
2023-02-04T06:57:04.513Z,1031.33
2023-02-04T06:58:02.203Z,1031.3
2023-02-04T06:59:03.300Z,1031.34
2023-02-04T07:00:02.150Z,1031.35
2023-02-04T07:01:01.218Z,1031.33
2023-02-04T07:02:01.928Z,1031.38
2023-02-04T07:03:02.132Z,1031.38
2023-02-04T07:04:01.143Z,1031.35
2023-02-04T07:05:01.056Z,1031.41
2023-02-04T07:06:01.178Z,1031.41
2023-02-04T07:07:02.230Z,1031.43
2023-02-04T07:08:01.152Z,1031.47
2023-02-04T07:09:00.865Z,1031.5
2023-02-04T07:10:01.161Z,1031.54
2023-02-04T07:11:01.058Z,1031.54
2023-02-04T07:12:01.072Z,1031.56
2023-02-04T07:13:01.224Z,1031.56
2023-02-04T07:14:01.287Z,1031.59
2023-02-04T07:15:02.885Z,1031.6
2023-02-04T07:16:02.157Z,1031.6
2023-02-04T07:17:01.112Z,1031.61
2023-02-04T07:18:01.119Z,1031.59
2023-02-04T07:19:01.396Z,1031.67
2023-02-04T07:20:03.900Z,1031.64
2023-02-04T07:21:02.865Z,1031.69
2023-02-04T07:22:01.743Z,1031.69
2023-02-04T07:23:01.434Z,1031.65
2023-02-04T07:24:02.029Z,1031.69
2023-02-04T07:25:01.776Z,1031.73
2023-02-04T07:26:01.332Z,1031.74
2023-02-04T07:27:02.667Z,1031.79
2023-02-04T07:28:02.821Z,1031.72
2023-02-04T07:29:01.550Z,1031.71
2023-02-04T07:30:01.176Z,1031.81
2023-02-04T07:31:01.241Z,1031.78
2023-02-04T07:32:02.698Z,1031.77
2023-02-04T07:33:01.105Z,1031.82
2023-02-04T07:34:01.128Z,1031.89
2023-02-04T07:35:00.747Z,1031.81
2023-02-04T07:36:00.501Z,1031.81
2023-02-04T07:37:00.329Z,1031.84
2023-02-04T07:37:59.992Z,1031.89
2023-02-04T07:38:59.603Z,1031.86
2023-02-04T07:40:01.166Z,1031.84
2023-02-04T07:41:01.154Z,1031.81
2023-02-04T07:42:01.225Z,1031.85
2023-02-04T07:43:01.670Z,1031.82
2023-02-04T07:44:01.068Z,1031.89
2023-02-04T07:45:01.251Z,1031.88
2023-02-04T07:46:02.087Z,1031.97
2023-02-04T07:47:01.102Z,1031.98
2023-02-04T07:48:01.105Z,1032
2023-02-04T07:49:01.134Z,1032.02
2023-02-04T07:50:00.819Z,1032.04
2023-02-04T07:51:00.751Z,1032.08
2023-02-04T07:52:00.409Z,1032.07
2023-02-04T07:53:00.120Z,1032.07
2023-02-04T07:53:59.770Z,1032.09
2023-02-04T07:55:01.438Z,1032.15
2023-02-04T07:56:02.662Z,1032.16
2023-02-04T07:57:01.276Z,1032.12
2023-02-04T07:58:02.573Z,1032.15
2023-02-04T07:59:08.092Z,1032.19
2023-02-04T08:00:01.269Z,1032.22
2023-02-04T08:01:02.317Z,1032.23
2023-02-04T08:02:01.055Z,1032.24
2023-02-04T08:03:01.869Z,1032.31
2023-02-04T08:04:01.121Z,1032.29
2023-02-04T08:05:03.692Z,1032.35
2023-02-04T08:06:01.770Z,1032.32
2023-02-04T08:07:01.102Z,1032.41
2023-02-04T08:08:01.097Z,1032.38
2023-02-04T08:09:01.101Z,1032.36
2023-02-04T08:10:05.751Z,1032.37
2023-02-04T08:11:01.122Z,1032.39
2023-02-04T08:12:01.140Z,1032.45
2023-02-04T08:13:01.881Z,1032.49
2023-02-04T08:14:01.445Z,1032.49
2023-02-04T08:15:09.471Z,1032.57
2023-02-04T08:16:01.070Z,1032.6
2023-02-04T08:17:01.780Z,1032.62
2023-02-04T08:18:01.132Z,1032.57
2023-02-04T08:19:02.943Z,1032.62
2023-02-04T08:20:12.516Z,1032.68
2023-02-04T08:21:01.102Z,1032.67
2023-02-04T08:22:01.118Z,1032.72
2023-02-04T08:23:01.093Z,1032.67
2023-02-04T08:24:01.084Z,1032.73
2023-02-04T08:25:15.338Z,1032.79
2023-02-04T08:26:01.474Z,1032.8
2023-02-04T08:27:01.550Z,1032.79
2023-02-04T08:28:01.272Z,1032.77
2023-02-04T08:29:01.122Z,1032.82
2023-02-04T08:30:00.739Z,1032.85
2023-02-04T08:31:01.246Z,1032.85
2023-02-04T08:32:02.602Z,1032.8
2023-02-04T08:33:01.722Z,1032.85
2023-02-04T08:34:01.078Z,1032.86
2023-02-04T08:35:01.048Z,1032.89
2023-02-04T08:36:01.178Z,1032.89
2023-02-04T08:37:01.423Z,1032.82
2023-02-04T08:38:02.218Z,1032.88
2023-02-04T08:39:01.578Z,1032.94
2023-02-04T08:40:02.022Z,1032.94
2023-02-04T08:41:02.696Z,1032.89
2023-02-04T08:42:01.185Z,1032.96
2023-02-04T08:43:01.153Z,1032.94
2023-02-04T08:44:01.119Z,1032.99
2023-02-04T08:45:01.125Z,1032.97
2023-02-04T08:46:01.165Z,1033.04
2023-02-04T08:47:01.556Z,1033.04
2023-02-04T08:48:01.049Z,1033.06
2023-02-04T08:49:01.058Z,1033.09
2023-02-04T08:50:01.475Z,1033.13
2023-02-04T08:51:01.086Z,1033.15
2023-02-04T08:52:01.101Z,1033.18
2023-02-04T08:53:01.089Z,1033.22
2023-02-04T08:54:01.138Z,1033.25
2023-02-04T08:55:01.126Z,1033.3
2023-02-04T08:56:01.492Z,1033.31
2023-02-04T08:57:01.137Z,1033.37
2023-02-04T08:58:01.243Z,1033.36
2023-02-04T08:59:01.130Z,1033.35
2023-02-04T09:00:01.170Z,1033.32
2023-02-04T09:01:01.205Z,1033.36
2023-02-04T09:02:01.263Z,1033.37
2023-02-04T09:03:01.961Z,1033.35
2023-02-04T09:04:01.242Z,1033.38
2023-02-04T09:05:01.308Z,1033.36
2023-02-04T09:06:02.210Z,1033.38
2023-02-04T09:07:01.087Z,1033.38
2023-02-04T09:08:01.098Z,1033.42
2023-02-04T09:09:03.819Z,1033.4
2023-02-04T09:10:01.505Z,1033.45
2023-02-04T09:11:01.128Z,1033.45
2023-02-04T09:12:01.089Z,1033.46
2023-02-04T09:13:01.101Z,1033.44
2023-02-04T09:14:01.125Z,1033.45
2023-02-04T09:15:01.148Z,1033.47
2023-02-04T09:16:03.942Z,1033.39
2023-02-04T09:17:02.183Z,1033.42
2023-02-04T09:18:01.968Z,1033.5
2023-02-04T09:19:01.180Z,1033.54
2023-02-04T09:20:01.178Z,1033.55
2023-02-04T09:21:01.804Z,1033.58
2023-02-04T09:22:01.435Z,1033.6
2023-02-04T09:23:01.441Z,1033.6
2023-02-04T09:24:01.446Z,1033.62
2023-02-04T09:25:01.479Z,1033.62
2023-02-04T09:26:01.098Z,1033.62
2023-02-04T09:27:01.117Z,1033.62
2023-02-04T09:28:01.188Z,1033.66
2023-02-04T09:29:01.127Z,1033.68
2023-02-04T09:30:00.842Z,1033.66
2023-02-04T09:31:03.023Z,1033.67
2023-02-04T09:32:01.417Z,1033.75
2023-02-04T09:33:01.395Z,1033.68
2023-02-04T09:34:00.771Z,1033.69
2023-02-04T09:35:00.800Z,1033.65
2023-02-04T09:36:00.467Z,1033.67
2023-02-04T09:37:00.179Z,1033.66
2023-02-04T09:37:59.847Z,1033.68
2023-02-04T09:39:02.393Z,1033.67
2023-02-04T09:40:02.179Z,1033.67
2023-02-04T09:41:02.113Z,1033.67
2023-02-04T09:42:01.107Z,1033.65
2023-02-04T09:43:01.116Z,1033.67
2023-02-04T09:44:01.133Z,1033.74
2023-02-04T09:45:01.122Z,1033.65
2023-02-04T09:46:01.213Z,1033.71
2023-02-04T09:47:01.346Z,1033.7
2023-02-04T09:48:01.159Z,1033.72
2023-02-04T09:49:01.157Z,1033.75
2023-02-04T09:50:00.905Z,1033.77
2023-02-04T09:51:01.177Z,1033.79
2023-02-04T09:52:01.816Z,1033.83
2023-02-04T09:53:01.804Z,1033.84
2023-02-04T09:54:01.080Z,1033.92
2023-02-04T09:55:01.090Z,1033.89
2023-02-04T09:56:01.179Z,1033.85
2023-02-04T09:57:02.168Z,1033.9
2023-02-04T09:58:01.108Z,1033.88
2023-02-04T09:59:01.103Z,1033.9
2023-02-04T10:00:01.116Z,1033.95
2023-02-04T10:01:04.871Z,1033.94
2023-02-04T10:02:01.113Z,1033.91
2023-02-04T10:03:01.118Z,1033.95
2023-02-04T10:04:01.243Z,1033.96
2023-02-04T10:05:01.130Z,1033.96
2023-02-04T10:06:06.954Z,1033.96
2023-02-04T10:07:01.144Z,1033.93
2023-02-04T10:08:01.142Z,1033.94
2023-02-04T10:09:01.499Z,1033.92
2023-02-04T10:10:01.263Z,1033.99
2023-02-04T10:11:08.523Z,1033.99
2023-02-04T10:12:01.078Z,1034.04
2023-02-04T10:13:01.091Z,1034.06
2023-02-04T10:14:01.073Z,1034.03
2023-02-04T10:15:01.103Z,1034.07
2023-02-04T10:16:11.450Z,1034.1
2023-02-04T10:17:02.219Z,1034.07
2023-02-04T10:18:01.119Z,1034.1
2023-02-04T10:19:01.954Z,1034.09
2023-02-04T10:20:00.823Z,1034.13
2023-02-04T10:21:13.150Z,1034.11
2023-02-04T10:22:01.180Z,1034.14
2023-02-04T10:23:01.185Z,1034.12
2023-02-04T10:24:01.150Z,1034.18
2023-02-04T10:25:01.152Z,1034.11
2023-02-04T10:26:14.999Z,1034.13
2023-02-04T10:27:01.211Z,1034.18
2023-02-04T10:28:01.489Z,1034.18
2023-02-04T10:29:01.052Z,1034.13
2023-02-04T10:30:00.777Z,1034.2
2023-02-04T10:31:01.216Z,1034.16
2023-02-04T10:32:01.176Z,1034.2
2023-02-04T10:33:01.103Z,1034.29
2023-02-04T10:34:01.109Z,1034.24
2023-02-04T10:35:01.352Z,1034.24
2023-02-04T10:36:01.332Z,1034.24
2023-02-04T10:37:01.138Z,1034.25
2023-02-04T10:38:01.489Z,1034.17
2023-02-04T10:39:01.214Z,1034.23
2023-02-04T10:40:01.211Z,1034.2
2023-02-04T10:41:01.157Z,1034.25
2023-02-04T10:42:01.392Z,1034.25
2023-02-04T10:43:01.079Z,1034.26
2023-02-04T10:44:01.114Z,1034.25
2023-02-04T10:45:01.120Z,1034.27
2023-02-04T10:46:01.532Z,1034.25
2023-02-04T10:47:01.167Z,1034.21
2023-02-04T10:48:01.156Z,1034.26
2023-02-04T10:49:01.158Z,1034.29
2023-02-04T10:50:00.808Z,1034.23
2023-02-04T10:51:01.112Z,1034.23
2023-02-04T10:52:01.209Z,1034.27
2023-02-04T10:53:01.415Z,1034.27
2023-02-04T10:54:02.513Z,1034.26
2023-02-04T10:55:02.767Z,1034.23
2023-02-04T10:56:01.264Z,1034.32
2023-02-04T10:57:01.752Z,1034.25
2023-02-04T10:58:01.193Z,1034.25
2023-02-04T10:59:01.079Z,1034.28
2023-02-04T11:00:01.259Z,1034.29
2023-02-04T11:01:01.165Z,1034.3
2023-02-04T11:02:01.301Z,1034.3
2023-02-04T11:03:01.394Z,1034.35
2023-02-04T11:04:04.110Z,1034.33
2023-02-04T11:05:01.113Z,1034.33
2023-02-04T11:06:01.090Z,1034.31
2023-02-04T11:07:01.140Z,1034.37
2023-02-04T11:08:01.058Z,1034.31
2023-02-04T11:09:01.127Z,1034.28
2023-02-04T11:10:01.168Z,1034.29
2023-02-04T11:11:01.955Z,1034.3
2023-02-04T11:12:02.365Z,1034.32
2023-02-04T11:13:01.758Z,1034.31
2023-02-04T11:14:02.895Z,1034.3
2023-02-04T11:15:02.718Z,1034.31
2023-02-04T11:16:01.194Z,1034.34
2023-02-04T11:17:01.175Z,1034.3
2023-02-04T11:18:02.024Z,1034.3
2023-02-04T11:19:01.304Z,1034.29
2023-02-04T11:20:01.111Z,1034.26
2023-02-04T11:21:01.145Z,1034.32
2023-02-04T11:22:01.136Z,1034.26
2023-02-04T11:23:01.540Z,1034.28
2023-02-04T11:24:01.121Z,1034.32
2023-02-04T11:25:01.145Z,1034.32
2023-02-04T11:26:01.128Z,1034.28
2023-02-04T11:27:01.129Z,1034.29
2023-02-04T11:28:01.210Z,1034.3
2023-02-04T11:29:01.141Z,1034.33
2023-02-04T11:30:01.161Z,1034.34
2023-02-04T11:31:01.326Z,1034.38
2023-02-04T11:32:01.606Z,1034.43
2023-02-04T11:33:08.124Z,1034.41
2023-02-04T11:34:01.086Z,1034.41
2023-02-04T11:35:01.351Z,1034.46
2023-02-04T11:36:01.096Z,1034.48
2023-02-04T11:37:01.301Z,1034.5
2023-02-04T11:38:01.476Z,1034.52
2023-02-04T11:39:02.167Z,1034.56
2023-02-04T11:40:01.169Z,1034.6
2023-02-04T11:41:01.129Z,1034.57
2023-02-04T11:42:01.128Z,1034.59
2023-02-04T11:43:01.308Z,1034.55
2023-02-04T11:44:01.165Z,1034.56
2023-02-04T11:45:01.357Z,1034.54
2023-02-04T11:46:01.614Z,1034.57
2023-02-04T11:47:02.822Z,1034.58
2023-02-04T11:48:01.856Z,1034.57
2023-02-04T11:49:17.235Z,1034.61
2023-02-04T11:50:01.110Z,1034.59
2023-02-04T11:51:01.006Z,1034.57
2023-02-04T11:52:04.405Z,1034.57
2023-02-04T11:53:00.743Z,1034.61
2023-02-04T11:54:00.736Z,1034.64
2023-02-04T11:55:00.439Z,1034.62
2023-02-04T11:56:00.183Z,1034.62
2023-02-04T11:57:07.801Z,1034.63
2023-02-04T11:58:02.511Z,1034.6
2023-02-04T11:59:01.148Z,1034.58
2023-02-04T12:00:01.100Z,1034.57
2023-02-04T12:01:01.275Z,1034.56
2023-02-04T12:02:10.154Z,1034.61
2023-02-04T12:03:01.416Z,1034.6
2023-02-04T12:04:01.957Z,1034.64
2023-02-04T12:05:01.103Z,1034.59
2023-02-04T12:06:01.113Z,1034.66
2023-02-04T12:07:12.031Z,1034.65
2023-02-04T12:08:00.860Z,1034.68